createdAt,value
2022-12-18T00:02:09.938Z,35.53
2022-12-18T00:04:36.433Z,37.23
2022-12-18T00:07:02.976Z,36.27
2022-12-18T00:09:39.168Z,38.80
2022-12-18T00:14:42.312Z,39.20
2022-12-18T00:17:10.168Z,35.87
2022-12-18T00:19:36.725Z,30.73
2022-12-18T00:22:03.365Z,29.90
2022-12-18T00:24:30.008Z,29.10
2022-12-18T00:26:56.505Z,26.73
2022-12-18T00:29:23.036Z,28.20
2022-12-18T00:31:49.739Z,29.37
2022-12-18T00:34:17.672Z,26.20
2022-12-18T00:36:44.184Z,26.43
2022-12-18T00:39:11.666Z,27.83
2022-12-18T00:41:38.160Z,24.30
2022-12-18T00:44:06.045Z,26.60
2022-12-18T00:46:32.877Z,26.37
2022-12-18T00:48:59.393Z,30.47
2022-12-18T00:51:27.687Z,27.27
2022-12-18T00:53:54.494Z,28.97
2022-12-18T00:56:21.016Z,28.07
2022-12-18T00:58:47.498Z,28.40
2022-12-18T01:01:14.540Z,27.60
2022-12-18T01:03:41.949Z,26.70
2022-12-18T01:06:09.964Z,26.90
2022-12-18T01:08:37.918Z,28.20
2022-12-18T01:11:09.145Z,29.67
2022-12-18T01:13:36.192Z,30.10
2022-12-18T01:16:03.022Z,30.37
2022-12-18T01:18:29.631Z,28.03
2022-12-18T01:20:56.133Z,27.10
2022-12-18T01:23:22.704Z,27.83
2022-12-18T01:25:50.546Z,26.90
2022-12-18T01:28:17.095Z,28.93
2022-12-18T01:30:43.614Z,27.77
2022-12-18T01:33:10.155Z,28.70
2022-12-18T01:35:41.390Z,27.77
2022-12-18T01:38:09.050Z,30.13
2022-12-18T01:40:36.134Z,27.43
2022-12-18T01:43:04.249Z,27.67
2022-12-18T01:45:33.342Z,27.73
2022-12-18T01:48:02.629Z,26.53
2022-12-18T01:50:33.370Z,25.37
2022-12-18T01:53:04.506Z,24.33
2022-12-18T01:55:36.027Z,25.03
2022-12-18T01:58:05.018Z,22.87
2022-12-18T02:00:31.735Z,23.87
2022-12-18T02:02:58.594Z,25.10
2022-12-18T02:05:32.237Z,24.17
2022-12-18T02:08:07.531Z,24.40
2022-12-18T02:10:42.281Z,26.87
2022-12-18T02:13:15.779Z,26.43
2022-12-18T02:15:51.926Z,26.67
2022-12-18T02:18:22.130Z,24.80
2022-12-18T02:20:53.873Z,25.03
2022-12-18T02:23:32.236Z,26.93
2022-12-18T02:26:08.528Z,21.60
2022-12-18T02:28:40.575Z,21.60
2022-12-18T02:31:12.004Z,22.03
2022-12-18T02:33:40.405Z,23.33
2022-12-18T02:36:08.868Z,22.30
2022-12-18T02:38:36.157Z,22.50
2022-12-18T02:41:05.902Z,23.87
2022-12-18T02:43:32.420Z,23.57
2022-12-18T02:46:00.851Z,24.73
2022-12-18T02:48:32.908Z,26.17
2022-12-18T02:51:07.704Z,28.07
2022-12-18T02:53:40.249Z,26.00
2022-12-18T02:56:14.687Z,25.77
2022-12-18T02:58:48.493Z,24.00
2022-12-18T03:01:20.523Z,25.67
2022-12-18T03:03:52.577Z,28.57
2022-12-18T03:06:23.824Z,28.37
2022-12-18T03:08:54.797Z,25.80
2022-12-18T03:11:22.711Z,26.73
2022-12-18T03:13:53.508Z,28.60
2022-12-18T03:16:25.721Z,27.83
2022-12-18T03:18:55.897Z,28.17
2022-12-18T03:21:29.210Z,26.97
2022-12-18T03:23:56.770Z,24.77
2022-12-18T03:26:26.862Z,26.50
2022-12-18T03:28:55.587Z,25.13
2022-12-18T03:31:24.525Z,21.47
2022-12-18T03:33:54.528Z,26.57
2022-12-18T03:36:21.206Z,25.03
2022-12-18T03:38:48.003Z,24.37
2022-12-18T03:41:20.553Z,25.90
2022-12-18T03:43:53.635Z,26.87
2022-12-18T03:46:27.982Z,24.23
2022-12-18T03:49:02.109Z,23.60
2022-12-18T03:51:38.487Z,24.00
2022-12-18T03:54:07.656Z,25.57
2022-12-18T03:56:38.272Z,22.57
2022-12-18T03:59:07.559Z,21.53
2022-12-18T04:01:37.137Z,22.83
2022-12-18T04:04:05.777Z,22.43
2022-12-18T04:06:32.971Z,22.30
2022-12-18T04:09:00.357Z,20.30
2022-12-18T04:11:27.206Z,24.20
2022-12-18T04:13:58.196Z,21.80
2022-12-18T04:16:26.849Z,25.47
2022-12-18T04:18:53.845Z,25.67
2022-12-18T04:21:21.191Z,24.13
2022-12-18T04:23:47.717Z,24.80
2022-12-18T04:26:14.347Z,24.67
2022-12-18T04:28:40.879Z,27.30
2022-12-18T04:31:07.511Z,25.63
2022-12-18T04:33:35.437Z,23.47
2022-12-18T04:36:02.039Z,24.83
2022-12-18T04:38:28.553Z,25.37
2022-12-18T04:40:55.088Z,22.87
2022-12-18T04:43:21.679Z,25.13
2022-12-18T04:45:48.249Z,24.83
2022-12-18T04:48:14.763Z,24.60
2022-12-18T04:50:42.645Z,24.63
2022-12-18T04:53:09.167Z,25.87
2022-12-18T04:55:36.554Z,25.27
2022-12-18T04:58:03.105Z,26.97
2022-12-18T05:00:29.587Z,26.00
2022-12-18T05:02:56.449Z,29.23
2022-12-18T05:05:23.015Z,27.87
2022-12-18T05:07:50.898Z,33.63
2022-12-18T05:10:17.597Z,30.43
2022-12-18T05:12:44.087Z,33.43
2022-12-18T05:15:10.841Z,29.67
2022-12-18T05:17:37.317Z,28.03
2022-12-18T05:20:04.454Z,29.43
2022-12-18T05:22:30.980Z,27.27
2022-12-18T05:24:58.831Z,28.90
2022-12-18T05:27:25.297Z,32.13
2022-12-18T05:29:51.811Z,23.80
2022-12-18T05:32:18.311Z,25.57
2022-12-18T05:34:44.853Z,26.17
2022-12-18T05:37:11.360Z,26.47
2022-12-18T05:39:37.905Z,26.03
2022-12-18T05:42:05.873Z,30.33
2022-12-18T05:44:32.378Z,29.13
2022-12-18T05:46:58.931Z,27.50
2022-12-18T05:49:25.497Z,28.73
2022-12-18T05:51:52.001Z,29.03
2022-12-18T05:54:18.633Z,32.60
2022-12-18T05:56:48.668Z,28.43
2022-12-18T05:59:17.002Z,37.23
2022-12-18T06:01:43.646Z,29.87
2022-12-18T06:04:10.199Z,31.90
2022-12-18T06:06:36.736Z,31.23
2022-12-18T06:09:03.984Z,32.20
2022-12-18T06:11:30.499Z,30.23
2022-12-18T06:13:59.111Z,30.50
2022-12-18T06:16:27.548Z,30.17
2022-12-18T06:18:54.455Z,29.13
2022-12-18T06:21:21.008Z,28.03
2022-12-18T06:23:47.530Z,22.80
2022-12-18T06:26:14.621Z,27.27
2022-12-18T06:28:41.693Z,29.00
2022-12-18T06:31:08.944Z,27.13
2022-12-18T06:33:37.547Z,30.27
2022-12-18T06:36:06.837Z,27.37
2022-12-18T06:38:33.970Z,29.87
2022-12-18T06:41:00.682Z,28.83
2022-12-18T06:43:27.557Z,30.70
2022-12-18T06:45:59.800Z,28.40
2022-12-18T06:48:26.381Z,29.70
2022-12-18T06:50:54.297Z,25.47
2022-12-18T06:53:20.858Z,29.60
2022-12-18T06:55:47.395Z,25.37
2022-12-18T06:58:14.022Z,27.70
2022-12-18T07:00:40.563Z,28.47
2022-12-18T07:03:07.105Z,29.50
2022-12-18T07:05:33.785Z,26.27
2022-12-18T07:08:01.657Z,27.37
2022-12-18T07:10:28.171Z,27.47
2022-12-18T07:12:54.667Z,29.07
2022-12-18T07:15:21.190Z,28.47
2022-12-18T07:17:47.659Z,68.33
2022-12-18T07:20:14.161Z,69.87
2022-12-18T07:22:40.693Z,54.80
2022-12-18T07:25:09.185Z,42.87
2022-12-18T07:27:35.699Z,39.47
2022-12-18T07:30:02.349Z,34.43
2022-12-18T07:32:28.847Z,29.60
2022-12-18T07:34:55.732Z,28.10
2022-12-18T07:37:22.257Z,32.47
2022-12-18T07:39:48.784Z,28.43
2022-12-18T07:42:18.059Z,27.10
2022-12-18T07:44:44.614Z,31.17
2022-12-18T07:47:12.364Z,31.53
2022-12-18T07:49:39.161Z,45.50
2022-12-18T07:52:05.680Z,42.10
2022-12-18T07:54:32.170Z,48.30
2022-12-18T07:56:58.743Z,31.93
2022-12-18T07:59:26.609Z,28.00
2022-12-18T08:01:53.214Z,23.57
2022-12-18T08:04:19.878Z,24.07
2022-12-18T08:06:48.216Z,27.90
2022-12-18T08:09:15.198Z,30.63
2022-12-18T08:11:41.799Z,28.83
2022-12-18T08:14:08.341Z,23.40
2022-12-18T08:16:36.515Z,25.07
2022-12-18T08:19:03.263Z,25.33
2022-12-18T08:21:31.484Z,27.20
2022-12-18T08:23:59.651Z,26.60
2022-12-18T08:26:28.464Z,27.43
2022-12-18T08:28:55.407Z,30.80
2022-12-18T08:31:22.369Z,31.63
2022-12-18T08:33:52.729Z,31.93
2022-12-18T08:36:19.820Z,35.53
2022-12-18T08:38:46.349Z,36.27
2022-12-18T08:41:15.219Z,33.10
2022-12-18T08:43:42.285Z,35.87
2022-12-18T08:46:09.133Z,36.80
2022-12-18T08:48:35.707Z,46.87
2022-12-18T08:51:03.844Z,63.67
2022-12-18T08:53:35.334Z,59.27
2022-12-18T08:56:02.213Z,50.67
2022-12-18T08:58:28.728Z,53.67
2022-12-18T09:00:55.359Z,48.63
2022-12-18T09:03:21.932Z,44.40
2022-12-18T09:05:48.596Z,35.73
2022-12-18T09:08:16.437Z,36.50
2022-12-18T09:10:43.670Z,37.47
2022-12-18T09:13:11.347Z,40.43
2022-12-18T09:15:41.835Z,38.20
2022-12-18T09:18:08.468Z,40.00
2022-12-18T09:20:34.990Z,36.77
2022-12-18T09:23:01.497Z,39.70
2022-12-18T09:25:29.783Z,33.07
2022-12-18T09:27:56.259Z,35.07
2022-12-18T09:30:22.828Z,41.57
2022-12-18T09:32:49.354Z,44.27
2022-12-18T09:35:16.010Z,41.03
2022-12-18T09:37:42.534Z,41.30
2022-12-18T09:40:14.673Z,47.53
2022-12-18T09:42:48.253Z,43.60
2022-12-18T09:45:16.345Z,39.50
2022-12-18T09:47:44.081Z,46.10
2022-12-18T09:50:23.172Z,43.77
2022-12-18T09:52:54.033Z,37.27
2022-12-18T09:55:25.806Z,39.43
2022-12-18T09:57:57.798Z,40.03
2022-12-18T10:00:25.703Z,43.10
2022-12-18T10:02:54.165Z,40.77
2022-12-18T10:05:35.143Z,36.87
2022-12-18T10:08:06.505Z,33.53
2022-12-18T10:10:38.904Z,40.97
2022-12-18T10:13:19.507Z,37.97
2022-12-18T10:15:57.146Z,32.23
2022-12-18T10:18:32.926Z,31.80
2022-12-18T10:21:06.157Z,29.23
2022-12-18T10:23:44.945Z,26.73
2022-12-18T10:26:14.403Z,27.60
2022-12-18T10:28:43.601Z,25.07
2022-12-18T10:31:16.786Z,25.67
2022-12-18T10:33:43.729Z,21.83
2022-12-18T10:36:10.665Z,22.97
2022-12-18T10:38:37.788Z,24.27
2022-12-18T10:41:06.312Z,25.17
2022-12-18T10:43:35.514Z,28.13
2022-12-18T10:46:20.502Z,27.63
2022-12-18T10:48:54.179Z,31.57
2022-12-18T10:51:22.812Z,25.50
2022-12-18T10:53:55.279Z,25.90
2022-12-18T10:56:22.165Z,24.90
2022-12-18T10:58:57.849Z,25.07
2022-12-18T11:01:25.879Z,28.20
2022-12-18T11:04:02.661Z,26.80
2022-12-18T11:06:29.694Z,27.20
2022-12-18T11:09:00.600Z,28.47
2022-12-18T11:11:27.943Z,30.03
2022-12-18T11:14:02.083Z,25.53
2022-12-18T11:16:33.795Z,26.93
2022-12-18T11:19:21.036Z,24.90
2022-12-18T11:21:47.894Z,24.60
2022-12-18T11:24:21.876Z,24.50
2022-12-18T11:26:49.016Z,26.17
2022-12-18T11:29:18.138Z,27.70
2022-12-18T11:31:46.891Z,24.67
2022-12-18T11:34:29.057Z,30.87
2022-12-18T11:36:58.531Z,27.97
2022-12-18T11:39:32.341Z,30.03
2022-12-18T11:42:05.147Z,31.20
2022-12-18T11:44:37.721Z,32.67
2022-12-18T11:47:13.437Z,26.50
2022-12-18T11:49:42.054Z,28.07
2022-12-18T11:52:15.167Z,31.27
2022-12-18T11:54:41.672Z,28.83
2022-12-18T11:57:16.315Z,28.43
2022-12-18T11:59:50.938Z,33.97
2022-12-18T12:02:31.302Z,27.27
2022-12-18T12:05:12.538Z,24.83
2022-12-18T12:07:48.690Z,28.23
2022-12-18T12:10:31.570Z,28.17
2022-12-18T12:13:12.903Z,28.27
2022-12-18T12:15:46.458Z,35.27
2022-12-18T12:18:28.723Z,29.17
2022-12-18T12:21:02.806Z,26.40
2022-12-18T12:23:42.700Z,29.57
2022-12-18T12:26:12.524Z,33.30
2022-12-18T12:29:05.399Z,27.50
2022-12-18T12:31:51.627Z,30.17
2022-12-18T12:34:24.248Z,26.53
2022-12-18T12:37:01.452Z,30.00
2022-12-18T12:39:31.316Z,25.87
2022-12-18T12:41:58.589Z,31.57
2022-12-18T12:44:28.980Z,26.87
2022-12-18T12:47:00.289Z,31.03
2022-12-18T12:49:36.312Z,34.20
2022-12-18T12:52:11.862Z,30.57
2022-12-18T12:54:38.831Z,33.03
2022-12-18T12:57:12.280Z,28.90
2022-12-18T12:59:50.310Z,30.30
2022-12-18T13:02:23.272Z,28.23
2022-12-18T13:04:58.478Z,30.60
2022-12-18T13:07:28.752Z,28.33
2022-12-18T13:10:31.560Z,28.10
2022-12-18T13:13:01.215Z,29.47
2022-12-18T13:15:36.816Z,27.57
2022-12-18T13:18:14.215Z,36.80
2022-12-18T13:20:50.800Z,29.53
2022-12-18T13:23:28.082Z,26.10
2022-12-18T13:25:55.468Z,29.63
2022-12-18T13:28:23.780Z,28.97
2022-12-18T13:30:55.829Z,27.07
2022-12-18T13:36:38.928Z,24.03
2022-12-18T13:39:34.814Z,26.33
2022-12-18T13:42:46.747Z,27.47
2022-12-18T13:45:38.978Z,25.60
2022-12-18T13:48:14.635Z,20.63
2022-12-18T13:50:41.339Z,30.10
2022-12-18T13:53:20.897Z,28.77
2022-12-18T13:55:50.319Z,29.20
2022-12-18T13:58:16.847Z,26.87
2022-12-18T14:00:45.023Z,32.27
2022-12-18T14:03:22.587Z,28.53
2022-12-18T14:05:55.807Z,29.97
2022-12-18T14:08:24.397Z,28.70
2022-12-18T14:10:51.558Z,28.43
2022-12-18T14:13:23.994Z,30.80
2022-12-18T14:15:51.436Z,28.27
2022-12-18T14:18:22.896Z,30.57
2022-12-18T14:20:53.102Z,26.83
2022-12-18T14:23:30.720Z,26.77
2022-12-18T14:26:00.862Z,28.63
2022-12-18T14:28:31.973Z,23.57
2022-12-18T14:30:58.591Z,33.53
2022-12-18T14:33:27.231Z,29.57
2022-12-18T14:35:57.341Z,27.67
2022-12-18T14:38:29.175Z,29.63
2022-12-18T14:40:57.781Z,28.50
2022-12-18T14:43:24.406Z,25.73
2022-12-18T14:45:51.804Z,27.30
2022-12-18T14:48:23.193Z,26.40
2022-12-18T14:50:59.119Z,32.33
2022-12-18T14:53:36.201Z,25.03
2022-12-18T14:56:03.614Z,27.40
2022-12-18T14:58:30.168Z,24.63
2022-12-18T15:00:56.890Z,26.00
2022-12-18T15:03:23.537Z,27.53
2022-12-18T15:05:50.661Z,25.07
2022-12-18T15:08:35.187Z,23.97
2022-12-18T15:11:02.036Z,26.03
2022-12-18T15:13:29.801Z,30.50
2022-12-18T15:15:58.477Z,29.07
2022-12-18T15:18:30.720Z,26.43
2022-12-18T15:20:59.527Z,27.83
2022-12-18T15:23:28.590Z,23.77
2022-12-18T15:26:01.601Z,27.23
2022-12-18T15:28:32.826Z,28.33
2022-12-18T15:31:05.069Z,27.40
2022-12-18T15:33:33.364Z,24.37
2022-12-18T15:36:01.466Z,24.27
2022-12-18T15:38:28.342Z,30.93
2022-12-18T15:40:55.418Z,27.43
2022-12-18T15:43:24.617Z,24.23
2022-12-18T15:45:51.170Z,24.70
2022-12-18T15:48:22.176Z,26.13
2022-12-18T15:50:49.877Z,26.17
2022-12-18T15:53:16.423Z,28.10
2022-12-18T15:55:42.983Z,27.47
2022-12-18T15:58:11.190Z,26.80
2022-12-18T16:00:41.137Z,27.40
2022-12-18T16:03:07.939Z,26.63
2022-12-18T16:05:34.625Z,26.83
2022-12-18T16:08:01.149Z,24.23
2022-12-18T16:10:28.012Z,24.43
2022-12-18T16:12:54.652Z,28.80
2022-12-18T16:15:24.748Z,27.37
2022-12-18T16:17:53.114Z,25.83
2022-12-18T16:20:22.041Z,29.13
2022-12-18T16:22:49.687Z,25.47
2022-12-18T16:25:19.849Z,26.90
2022-12-18T16:27:46.357Z,26.67
2022-12-18T16:30:16.061Z,33.70
2022-12-18T16:32:42.578Z,31.13
2022-12-18T16:35:12.706Z,32.77
2022-12-18T16:37:39.588Z,33.70
2022-12-18T16:40:08.262Z,29.03
2022-12-18T16:42:34.760Z,29.40
2022-12-18T16:45:01.292Z,28.37
2022-12-18T16:47:27.792Z,26.90
2022-12-18T16:49:54.309Z,26.70
2022-12-18T16:52:22.242Z,30.97
2022-12-18T16:54:48.795Z,29.87
2022-12-18T16:57:19.039Z,27.57
2022-12-18T16:59:46.420Z,30.87
2022-12-18T17:02:14.537Z,28.43
2022-12-18T17:04:41.298Z,25.27
2022-12-18T17:07:07.836Z,24.63
2022-12-18T17:09:35.966Z,29.10
2022-12-18T17:12:04.502Z,30.30
2022-12-18T17:14:32.912Z,26.00
2022-12-18T17:17:20.431Z,24.97
2022-12-18T17:19:45.951Z,28.27
2022-12-18T17:22:12.466Z,29.07
2022-12-18T17:24:40.324Z,27.27
2022-12-18T17:27:06.848Z,25.73
2022-12-18T17:29:33.436Z,25.60
2022-12-18T17:32:00.519Z,27.83
2022-12-18T17:34:27.171Z,27.00
2022-12-18T17:36:53.680Z,26.50
2022-12-18T17:39:21.155Z,22.23
2022-12-18T17:41:49.337Z,24.53
2022-12-18T17:44:16.501Z,27.63
2022-12-18T17:46:43.089Z,28.33
2022-12-18T17:49:09.933Z,23.97
2022-12-18T17:51:36.516Z,35.47
2022-12-18T17:54:03.090Z,32.60
2022-12-18T17:56:29.668Z,31.90
2022-12-18T17:58:57.524Z,29.47
2022-12-18T18:01:25.674Z,29.67
2022-12-18T18:03:53.623Z,30.10
2022-12-18T18:06:20.611Z,30.23
2022-12-18T18:08:47.187Z,29.17
2022-12-18T18:11:15.645Z,30.30
2022-12-18T18:13:46.933Z,28.80
2022-12-18T18:16:15.207Z,36.07
2022-12-18T18:18:41.739Z,32.17
2022-12-18T18:21:09.147Z,31.17
2022-12-18T18:23:35.801Z,30.80
2022-12-18T18:26:03.370Z,28.33
2022-12-18T18:28:30.741Z,29.93
2022-12-18T18:30:58.387Z,27.67
2022-12-18T18:33:26.230Z,25.67
2022-12-18T18:35:54.101Z,29.63
2022-12-18T18:38:21.243Z,27.40
2022-12-18T18:40:48.110Z,29.83
2022-12-18T18:43:14.717Z,28.10
2022-12-18T18:45:41.346Z,30.00
2022-12-18T18:48:09.958Z,25.53
2022-12-18T18:50:37.787Z,32.07
2022-12-18T18:53:04.305Z,31.33
2022-12-18T18:55:33.128Z,36.40
2022-12-18T18:57:59.619Z,37.23
2022-12-18T19:00:27.637Z,63.23
2022-12-18T19:03:00.319Z,52.50
2022-12-18T19:05:27.376Z,58.33
2022-12-18T19:07:55.404Z,43.77
2022-12-18T19:10:22.110Z,70.93
2022-12-18T19:12:48.600Z,81.77
2022-12-18T19:15:15.156Z,41.77
2022-12-18T19:17:41.831Z,35.97
2022-12-18T19:20:12.400Z,35.23
2022-12-18T19:22:38.958Z,29.07
2022-12-18T19:25:08.354Z,31.43
2022-12-18T19:27:34.906Z,32.10
2022-12-18T19:30:01.397Z,32.13
2022-12-18T19:32:27.921Z,31.20
2022-12-18T19:34:54.444Z,27.50
2022-12-18T19:37:20.982Z,29.43
2022-12-18T19:39:47.855Z,28.67
2022-12-18T19:42:20.072Z,26.60
2022-12-18T19:44:49.723Z,26.90
2022-12-18T19:47:16.256Z,26.80
2022-12-18T19:49:42.888Z,24.87
2022-12-18T19:52:09.485Z,22.77
2022-12-18T19:54:36.487Z,27.43
2022-12-18T19:57:03.108Z,26.60
2022-12-18T19:59:30.961Z,27.13
2022-12-18T20:01:57.618Z,24.70
2022-12-18T20:04:24.288Z,23.90
2022-12-18T20:06:52.813Z,25.97
2022-12-18T20:09:21.646Z,30.57
2022-12-18T20:11:49.491Z,23.63
2022-12-18T20:14:18.756Z,25.67
2022-12-18T20:16:51.853Z,24.10
2022-12-18T20:19:18.938Z,24.00
2022-12-18T20:21:45.522Z,24.90
2022-12-18T20:24:12.027Z,23.13
2022-12-18T20:26:38.891Z,25.47
2022-12-18T20:29:05.384Z,27.60
2022-12-18T20:31:32.026Z,26.47
2022-12-18T20:34:01.499Z,24.50
2022-12-18T20:36:29.391Z,23.70
2022-12-18T20:38:59.151Z,28.43
2022-12-18T20:41:31.672Z,30.13
2022-12-18T20:44:04.727Z,25.63
2022-12-18T20:46:31.281Z,26.93
2022-12-18T20:48:57.819Z,24.97
2022-12-18T20:51:25.703Z,42.33
2022-12-18T20:53:52.241Z,40.67
2022-12-18T20:56:21.465Z,45.47
2022-12-18T20:58:49.102Z,60.33
2022-12-18T21:01:17.834Z,35.53
2022-12-18T21:03:45.431Z,29.37
2022-12-18T21:06:12.677Z,29.87
2022-12-18T21:08:40.817Z,26.90
2022-12-18T21:11:15.335Z,26.10
2022-12-18T21:13:43.879Z,22.50
2022-12-18T21:16:10.418Z,22.70
2022-12-18T21:18:37.609Z,27.13
2022-12-18T21:21:04.496Z,29.60
2022-12-18T21:23:30.984Z,25.13
2022-12-18T21:28:55.194Z,23.97
2022-12-18T21:31:21.882Z,22.33
2022-12-18T21:33:48.451Z,25.10
2022-12-18T21:36:17.062Z,26.63
2022-12-18T21:38:43.816Z,25.37
2022-12-18T21:41:12.100Z,22.77
2022-12-18T21:43:38.599Z,24.97
2022-12-18T21:46:06.541Z,27.27
2022-12-18T21:48:33.089Z,27.10
2022-12-18T21:50:59.866Z,26.87
2022-12-18T21:53:26.394Z,31.70
2022-12-18T21:55:57.620Z,52.67
2022-12-18T21:58:24.127Z,38.90
2022-12-18T22:00:50.838Z,63.07
2022-12-18T22:03:19.474Z,41.63
2022-12-18T22:05:46.128Z,66.97
2022-12-18T22:08:15.887Z,37.60
2022-12-18T22:10:42.744Z,136.57
2022-12-18T22:13:09.434Z,50.10
2022-12-18T22:15:36.013Z,36.43
2022-12-18T22:18:02.533Z,31.27
2022-12-18T22:20:30.511Z,26.13
2022-12-18T22:22:57.262Z,24.23
2022-12-18T22:25:23.874Z,33.60
2022-12-18T22:27:50.433Z,26.73
2022-12-18T22:30:17.055Z,31.20
2022-12-18T22:32:43.566Z,27.00
2022-12-18T22:35:15.652Z,24.83
2022-12-18T22:37:43.990Z,24.87
2022-12-18T22:40:23.560Z,22.73
2022-12-18T22:42:50.731Z,20.20
2022-12-18T22:45:19.309Z,24.07
2022-12-18T22:47:45.814Z,22.67
2022-12-18T22:50:13.605Z,25.07
2022-12-18T22:52:40.618Z,26.80
2022-12-18T22:55:09.182Z,28.47
2022-12-18T22:57:35.715Z,23.33
2022-12-18T23:00:05.267Z,24.27
2022-12-18T23:02:31.890Z,26.30
2022-12-18T23:04:58.500Z,23.70
2022-12-18T23:07:25.118Z,25.40
2022-12-18T23:09:51.618Z,21.27
2022-12-18T23:12:27.547Z,25.87
2022-12-18T23:14:54.416Z,20.90
2022-12-18T23:17:21.147Z,20.93
2022-12-18T23:19:49.369Z,25.03
2022-12-18T23:22:16.122Z,28.10
2022-12-18T23:24:42.616Z,25.53
2022-12-18T23:27:11.861Z,25.60
2022-12-18T23:29:40.523Z,22.83
2022-12-18T23:32:07.598Z,28.00
2022-12-18T23:34:34.138Z,29.13
2022-12-18T23:37:00.666Z,29.80
2022-12-18T23:39:29.647Z,32.57
2022-12-18T23:41:56.934Z,31.60
2022-12-18T23:44:23.601Z,28.10
2022-12-18T23:46:52.013Z,26.33
2022-12-18T23:49:18.591Z,26.43
2022-12-18T23:51:45.112Z,27.20
2022-12-18T23:54:11.712Z,25.73
2022-12-18T23:56:38.210Z,24.70
2022-12-18T23:59:04.787Z,22.97
